Time;durP1;ratioP1;P1;durP2;ratioP2;P2;SDS_P1;SDS_P2;PMS_P1;PMS_P2;Temp;Humidity;BMP_temperature;BMP_pressure;BME280_temperature;BME280_humidity;BME280_pressure;Samples;Min_cycle;Max_cycle;Signal;HPM_P1;HPM_P2
2023/03/31 00:01:51;;;;;;;5.70;5.33;;;;;;;4.15;100.00;147097.13;5091568;28;20270;-58
2023/03/31 00:04:22;;;;;;;5.80;5.10;;;;;;;3.97;100.00;147053.13;5091801;28;20547;-59
2023/03/31 00:06:52;;;;;;;6.00;5.53;;;;;;;3.87;100.00;147027.97;5091475;28;20188;-58
2023/03/31 00:09:20;;;;;;;5.80;5.27;;;;;;;3.81;100.00;147011.63;5091908;28;20204;-59
2023/03/31 00:11:50;;;;;;;10.07;5.83;;;;;;;3.26;100.00;146875.94;5091312;28;20280;-60
2023/03/31 00:14:18;;;;;;;15.87;5.53;;;;;;;2.75;100.00;146750.34;5091904;28;20641;-59
2023/03/31 00:16:46;;;;;;;11.03;5.90;;;;;;;2.53;100.00;146693.81;5091532;28;20222;-58
2023/03/31 00:19:18;;;;;;;8.93;6.50;;;;;;;2.56;100.00;146701.34;5092200;28;20216;-59
2023/03/31 00:21:46;;;;;;;14.00;6.40;;;;;;;2.59;100.00;146710.13;5091998;28;20562;-60
2023/03/31 00:24:15;;;;;;;11.27;6.00;;;;;;;2.69;100.00;146735.25;5091908;28;20269;-59
2023/03/31 00:26:42;;;;;;;12.20;5.90;;;;;;;2.81;100.00;146762.84;5091412;28;20198;-58
2023/03/31 00:29:12;;;;;;;4.67;4.33;;;;;;;2.58;100.00;146706.38;5091192;28;20299;-60
2023/03/31 00:31:39;;;;;;;6.10;4.87;;;;;;;2.30;100.00;146637.31;5091384;28;20211;-59
2023/03/31 00:34:07;;;;;;;7.87;4.70;;;;;;;2.39;100.00;146658.66;5091394;28;20271;-58
2023/03/31 00:36:46;;;;;;;14.20;4.37;;;;;;;2.39;100.00;146659.91;5091588;28;20615;-60
2023/03/31 00:39:13;;;;;;;7.30;4.23;;;;;;;2.27;100.00;146631.06;5091289;28;20191;-58
2023/03/31 00:41:41;;;;;;;4.43;4.07;;;;;;;2.10;100.00;146588.38;5091695;28;20192;-60
2023/03/31 00:44:13;;;;;;;7.30;3.30;;;;;;;2.63;100.00;146718.94;5091478;28;20598;-58
2023/03/31 00:46:48;;;;;;;10.60;4.67;;;;;;;2.40;100.00;146661.16;5091184;28;20275;-59
2023/03/31 00:49:23;;;;;;;6.63;4.47;;;;;;;2.82;100.00;146765.38;5091250;28;20239;-59
2023/03/31 00:51:53;;;;;;;6.00;4.43;;;;;;;2.83;100.00;146769.16;5091447;28;20618;-60
2023/03/31 00:54:24;;;;;;;15.23;10.77;;;;;;;2.85;100.00;146774.16;5094934;28;20281;-60
2023/03/31 00:56:54;;;;;;;14.47;12.13;;;;;;;2.93;100.00;146794.25;5094944;28;20230;-58
2023/03/31 00:59:28;;;;;;;15.20;12.00;;;;;;;3.03;100.00;146819.38;5095149;28;20184;-60
2023/03/31 01:02:01;;;;;;;14.10;12.70;;;;;;;3.20;100.00;146862.09;5094753;28;20267;-58
2023/03/31 01:04:30;;;;;;;11.77;8.37;;;;;;;3.28;100.00;146879.66;5094745;28;20275;-59
2023/03/31 01:07:03;;;;;;;6.70;6.03;;;;;;;2.96;100.00;146800.56;5094673;28;20336;-58
2023/03/31 01:09:34;;;;;;;8.80;6.30;;;;;;;2.83;100.00;146769.16;5095114;28;20625;-60
2023/03/31 01:12:04;;;;;;;13.63;6.73;;;;;;;2.78;100.00;146755.34;5094604;28;20606;-58
2023/03/31 01:14:33;;;;;;;13.70;6.30;;;;;;;2.64;100.00;146721.41;5094538;28;20271;-59
2023/03/31 01:17:01;;;;;;;13.33;6.93;;;;;;;2.49;100.00;146685.03;5094330;28;20219;-60
2023/03/31 01:19:42;;;;;;;9.03;5.83;;;;;;;2.56;100.00;146701.34;5094437;28;20176;-59
2023/03/31 01:22:40;;;;;;;6.90;6.00;;;;;;;2.35;100.00;146649.88;5094540;28;20278;-58
2023/03/31 01:25:42;;;;;;;15.13;5.87;;;;;;;1.98;100.00;146558.25;5094301;28;20188;-58
2023/03/31 01:28:18;;;;;;;20.67;7.47;;;;;;;1.99;100.00;146559.53;5094116;28;20196;-60
2023/03/31 01:31:23;;;;;;;12.27;6.77;;;;;;;2.18;100.00;146608.44;5094482;28;20566;-60
2023/03/31 01:34:41;;;;;;;16.80;6.57;;;;;;;2.17;100.00;146604.66;5094505;28;20187;-60
2023/03/31 01:37:44;;;;;;;7.03;5.60;;;;;;;2.22;100.00;146618.50;5094079;28;20269;-59
2023/03/31 01:40:25;;;;;;;12.80;6.07;;;;;;;1.99;100.00;146559.53;5094317;28;20180;-59
2023/03/31 01:42:58;;;;;;;12.43;6.93;;;;;;;2.04;100.00;146573.28;5094179;28;20223;-58
2023/03/31 01:45:34;;;;;;;14.87;6.20;;;;;;;1.86;100.00;146528.16;5094176;28;20215;-59
2023/03/31 01:48:07;;;;;;;8.30;6.00;;;;;;;1.74;100.00;146498.03;5093955;28;20186;-59
2023/03/31 01:50:40;;;;;;;16.93;9.00;;;;;;;1.79;100.00;146510.56;5094111;28;20188;-59
2023/03/31 01:53:15;;;;;;;17.40;8.87;;;;;;;1.88;100.00;146531.88;5093758;28;20306;-59
2023/03/31 01:55:49;;;;;;;16.33;13.40;;;;;;;1.94;100.00;146548.22;5094171;28;20221;-58
2023/03/31 01:58:20;;;;;;;10.10;8.10;;;;;;;2.28;100.00;146633.56;5093688;28;20221;-58
2023/03/31 02:00:55;;;;;;;16.80;9.43;;;;;;;2.19;100.00;146609.72;5093644;28;20319;-61
2023/03/31 02:03:28;;;;;;;21.37;10.50;;;;;;;2.04;100.00;146573.28;5093282;28;20626;-60
2023/03/31 02:05:58;;;;;;;26.87;12.00;;;;;;;1.94;100.00;146546.97;5093104;28;20244;-59
2023/03/31 02:08:31;;;;;;;17.07;13.27;;;;;;;2.05;100.00;146575.81;5093584;28;20231;-59
2023/03/31 02:10:59;;;;;;;25.63;13.27;;;;;;;2.00;100.00;146563.25;5093249;28;20263;-59
2023/03/31 02:13:29;;;;;;;27.03;9.80;;;;;;;2.03;100.00;146570.81;5093740;28;20227;-61
2023/03/31 02:16:00;;;;;;;22.40;11.73;;;;;;;1.71;100.00;146491.75;5093326;28;20184;-58
2023/03/31 02:18:31;;;;;;;15.13;10.73;;;;;;;2.06;100.00;146578.34;5093685;28;20253;-59
2023/03/31 02:21:00;;;;;;;22.27;11.23;;;;;;;1.88;100.00;146533.13;5093227;28;20220;-58
2023/03/31 02:23:31;;;;;;;29.63;12.10;;;;;;;1.95;100.00;146550.75;5093164;28;20223;-58
2023/03/31 02:26:05;;;;;;;14.40;11.67;;;;;;;2.15;100.00;146599.66;5093481;28;20201;-59
2023/03/31 02:28:32;;;;;;;25.07;16.80;;;;;;;2.31;100.00;146639.81;5093358;28;20623;-59
2023/03/31 02:31:13;;;;;;;38.23;17.17;;;;;;;2.55;100.00;146700.06;5093015;28;20229;-58
2023/03/31 02:33:40;;;;;;;28.17;16.73;;;;;;;2.65;100.00;146723.94;5093014;28;20197;-59
2023/03/31 02:36:07;;;;;;;24.93;16.27;;;;;;;2.79;100.00;146759.13;5093222;28;20703;-60
2023/03/31 02:38:40;;;;;;;30.30;15.97;;;;;;;2.92;100.00;146791.78;5093146;28;20267;-60
2023/03/31 02:41:09;;;;;;;23.47;13.47;;;;;;;2.90;100.00;146785.47;5092833;28;20228;-59
2023/03/31 02:43:36;;;;;;;17.13;12.03;;;;;;;2.74;100.00;146747.81;5092854;28;20191;-59
2023/03/31 02:46:03;;;;;;;34.00;13.77;;;;;;;2.83;100.00;146767.91;5092791;28;20278;-60
2023/03/31 02:48:34;;;;;;;19.17;12.60;;;;;;;2.77;100.00;146754.06;5092668;28;20275;-59
2023/03/31 02:51:26;;;;;;;28.33;13.10;;;;;;;2.29;100.00;146636.03;5092760;28;20184;-60
2023/03/31 02:54:05;;;;;;;17.70;11.37;;;;;;;2.09;100.00;146584.59;5092638;28;20716;-59
2023/03/31 02:56:48;;;;;;;26.17;11.87;;;;;;;1.90;100.00;146538.19;5092896;28;20192;-58
2023/03/31 02:59:31;;;;;;;27.63;12.27;;;;;;;1.41;100.00;146415.22;5092857;28;20184;-58
2023/03/31 03:02:09;;;;;;;25.73;12.33;;;;;;;1.64;100.00;146472.94;5092482;28;20278;-60
2023/03/31 03:05:00;;;;;;;20.77;11.20;;;;;;;1.82;100.00;146519.31;5092415;28;20203;-63
2023/03/31 03:07:34;;;;;;;21.70;11.80;;;;;;;1.85;100.00;146525.63;5092336;28;20230;-59
2023/03/31 03:10:08;;;;;;;22.63;12.23;;;;;;;1.60;100.00;146462.91;5092223;28;20294;-60
2023/03/31 03:12:45;;;;;;;26.83;13.40;;;;;;;2.00;100.00;146562.00;5092386;28;20765;-60
2023/03/31 03:15:17;;;;;;;23.80;12.73;;;;;;;2.06;100.00;146578.34;5092131;28;20188;-60
2023/03/31 03:17:48;;;;;;;17.57;11.07;;;;;;;2.00;100.00;146562.00;5092580;28;20207;-60
2023/03/31 03:20:16;;;;;;;23.63;11.93;;;;;;;1.99;100.00;146560.78;5092234;28;20271;-60
2023/03/31 03:22:43;;;;;;;19.17;12.00;;;;;;;1.91;100.00;146540.66;5092412;28;20215;-58
2023/03/31 03:25:12;;;;;;;23.53;12.00;;;;;;;1.96;100.00;146551.97;5092388;28;20184;-60
2023/03/31 03:27:41;;;;;;;16.93;11.00;;;;;;;1.63;100.00;146470.41;5092042;28;20183;-61
2023/03/31 03:30:10;;;;;;;22.47;11.20;;;;;;;1.34;100.00;146400.19;5091846;28;20296;-60
2023/03/31 03:32:38;;;;;;;20.83;10.93;;;;;;;1.38;100.00;146410.22;5092162;28;20184;-59
2023/03/31 03:35:06;;;;;;;24.17;12.10;;;;;;;1.34;100.00;146398.94;5091926;28;20275;-60
2023/03/31 03:37:34;;;;;;;31.00;12.53;;;;;;;1.57;100.00;146456.59;5092152;28;20253;-60
2023/03/31 03:40:01;;;;;;;34.40;12.33;;;;;;;1.64;100.00;146472.94;5091908;28;20180;-58
2023/03/31 03:42:28;;;;;;;23.27;11.40;;;;;;;1.50;100.00;146437.78;5092236;28;20237;-61
2023/03/31 03:44:56;;;;;;;31.13;13.10;;;;;;;1.74;100.00;146498.03;5091849;28;20184;-60
2023/03/31 03:47:23;;;;;;;28.97;10.53;;;;;;;1.79;100.00;146510.56;5091765;28;20192;-59
2023/03/31 03:49:50;;;;;;;26.97;11.80;;;;;;;1.77;100.00;146505.56;5091982;28;20294;-59
2023/03/31 03:52:17;;;;;;;25.57;11.43;;;;;;;1.80;100.00;146514.34;5091764;28;20224;-59
2023/03/31 03:54:44;;;;;;;22.73;11.57;;;;;;;1.78;100.00;146508.09;5091699;28;20234;-60
2023/03/31 03:57:11;;;;;;;42.37;13.77;;;;;;;1.95;100.00;146550.75;5091851;28;20199;-59
2023/03/31 03:59:41;;;;;;;24.03;12.60;;;;;;;1.77;100.00;146506.81;5091823;28;20223;-61
2023/03/31 04:02:09;;;;;;;23.03;12.80;;;;;;;1.69;100.00;146485.50;5091567;28;20222;-61
2023/03/31 04:04:36;;;;;;;34.93;13.53;;;;;;;1.90;100.00;146536.94;5091594;28;20223;-60
2023/03/31 04:07:03;;;;;;;32.67;13.70;;;;;;;1.87;100.00;146530.63;5091651;28;20195;-59
2023/03/31 04:09:31;;;;;;;30.87;13.77;;;;;;;1.62;100.00;146469.16;5091543;28;20352;-59
2023/03/31 04:11:58;;;;;;;39.00;15.67;;;;;;;2.02;100.00;146567.03;5091400;28;20318;-60
2023/03/31 04:14:25;;;;;;;36.40;14.70;;;;;;;2.00;100.00;146563.25;5091475;28;20275;-58
2023/03/31 04:16:55;;;;;;;36.17;14.67;;;;;;;1.94;100.00;146546.97;5091324;28;20231;-59
2023/03/31 04:19:24;;;;;;;60.27;14.60;;;;;;;2.32;100.00;146641.09;5092002;28;20180;-60
2023/03/31 04:22:01;;;;;;;35.90;15.00;;;;;;;2.43;100.00;146668.69;5091536;28;20183;-59
2023/03/31 04:24:31;;;;;;;38.50;14.83;;;;;;;3.06;100.00;146826.91;5090154;28;20206;-58
2023/03/31 04:27:00;;;;;;;33.73;15.40;;;;;;;3.34;100.00;146894.78;5091764;28;20275;-58
2023/03/31 04:29:27;;;;;;;38.40;14.90;;;;;;;3.48;100.00;146929.97;5095576;28;20203;-58
2023/03/31 04:31:57;;;;;;;30.47;13.43;;;;;;;3.76;100.00;146999.06;5095487;28;20188;-60
2023/03/31 04:34:33;;;;;;;31.43;14.03;;;;;;;4.00;100.00;147060.66;5095452;28;20188;-59
2023/03/31 04:37:01;;;;;;;34.30;14.10;;;;;;;4.37;100.00;147151.19;5095363;28;20188;-59
2023/03/31 04:39:30;;;;;;;28.43;14.00;;;;;;;4.58;100.00;147204.03;5095589;28;20592;-59
2023/03/31 04:41:58;;;;;;;30.93;12.90;;;;;;;4.90;100.00;147284.50;5095580;28;20184;-59
2023/03/31 04:44:25;;;;;;;34.83;13.67;;;;;;;5.17;100.00;147349.94;5095415;28;20223;-59
2023/03/31 04:46:53;;;;;;;41.03;14.40;;;;;;;5.60;100.00;147458.16;5095184;28;20181;-61
2023/03/31 04:49:20;;;;;;;49.03;15.13;;;;;;;5.47;100.00;147425.47;5095092;28;20294;-59
2023/03/31 04:51:48;;;;;;;50.10;16.70;;;;;;;5.33;100.00;147390.22;5095141;28;20184;-60
2023/03/31 04:54:15;;;;;;;59.80;16.57;;;;;;;5.95;100.00;147545.09;5094970;28;20224;-59
2023/03/31 04:56:42;;;;;;;63.17;16.20;;;;;;;6.64;100.00;147717.66;5095180;28;20276;-59
2023/03/31 04:59:09;;;;;;;43.67;14.50;;;;;;;7.70;100.00;147981.09;5095136;28;20267;-61
2023/03/31 05:01:37;;;;;;;25.80;11.13;;;;;;;8.54;100.00;148191.81;5094856;28;20184;-60
2023/03/31 05:04:04;;;;;;;37.57;13.00;;;;;;;9.20;100.00;148354.66;5094739;28;20185;-59
2023/03/31 05:06:31;;;;;;;52.87;13.73;;;;;;;8.62;100.00;148212.00;5095121;28;20635;-59
2023/03/31 05:09:00;;;;;;;48.50;13.87;;;;;;;7.98;100.00;148050.44;5094721;28;20271;-58
2023/03/31 05:11:27;;;;;;;40.47;13.07;;;;;;;7.87;100.00;148022.72;5094624;28;20235;-59
2023/03/31 05:13:54;;;;;;;28.43;12.90;;;;;;;7.39;100.00;147904.19;5095196;28;20253;-61
2023/03/31 05:16:21;;;;;;;32.87;12.57;;;;;;;7.39;100.00;147902.91;5094472;28;20192;-59
2023/03/31 05:18:48;;;;;;;32.63;12.67;;;;;;;7.21;100.00;147860.03;5094505;28;20231;-60
2023/03/31 05:21:17;;;;;;;46.07;13.07;;;;;;;7.10;100.00;147831.06;5094353;28;20267;-60
2023/03/31 05:23:45;;;;;;;53.13;13.27;;;;;;;7.20;100.00;147856.28;5094273;28;20245;-60
2023/03/31 05:26:15;;;;;;;41.67;12.90;;;;;;;7.08;100.00;147827.31;5094210;28;20207;-60
2023/03/31 05:28:42;;;;;;;39.63;12.90;;;;;;;6.98;100.00;147800.81;5094498;28;20188;-60
2023/03/31 05:31:13;;;;;;;45.23;12.60;;;;;;;7.01;100.00;147809.63;5094334;28;20300;-59
2023/03/31 05:33:40;;;;;;;48.40;13.37;;;;;;;7.21;100.00;147860.03;5094047;28;20199;-60
2023/03/31 05:36:08;;;;;;;29.40;13.53;;;;;;;7.23;100.00;147865.09;5093956;28;20191;-60
2023/03/31 05:38:35;;;;;;;39.87;13.73;;;;;;;7.44;100.00;147915.53;5093679;28;20320;-61
2023/03/31 05:41:02;;;;;;;86.97;20.00;;;;;;;7.59;100.00;147953.38;5094225;28;20301;-60
2023/03/31 05:43:31;;;;;;;113.37;30.80;;;;;;;7.70;100.00;147981.09;5093794;28;20290;-60
2023/03/31 05:45:58;;;;;;;105.30;33.50;;;;;;;7.56;100.00;147945.78;5093976;28;20267;-61
2023/03/31 05:48:25;;;;;;;201.10;76.23;;;;;;;7.74;100.00;147992.44;5094071;28;20188;-61
2023/03/31 05:50:52;;;;;;;179.87;73.53;;;;;;;7.78;100.00;148001.28;5092639;28;20307;-60
2023/03/31 05:53:19;;;;;;;114.57;50.57;;;;;;;7.88;100.00;148025.25;5093528;28;20180;-61
2023/03/31 05:55:46;;;;;;;89.57;40.43;;;;;;;7.77;100.00;147998.75;5093917;28;20253;-61
2023/03/31 05:58:13;;;;;;;39.93;21.93;;;;;;;7.73;100.00;147988.66;5093557;28;20241;-61
2023/03/31 06:00:43;;;;;;;36.93;17.50;;;;;;;7.88;100.00;148025.25;5093425;28;20223;-61
2023/03/31 06:03:10;;;;;;;45.03;15.97;;;;;;;7.86;100.00;148020.19;5093418;28;20180;-59
2023/03/31 06:05:37;;;;;;;27.83;12.57;;;;;;;8.14;100.00;148090.84;5093287;28;20635;-61
2023/03/31 06:08:04;;;;;;;40.17;14.47;;;;;;;8.13;100.00;148088.31;5093317;28;20616;-61
2023/03/31 06:10:31;;;;;;;28.37;12.37;;;;;;;8.21;100.00;148109.75;5093206;28;20262;-60
2023/03/31 06:12:58;;;;;;;30.40;12.07;;;;;;;8.39;100.00;148152.72;5093185;28;20223;-62
2023/03/31 06:15:25;;;;;;;41.97;13.30;;;;;;;8.51;100.00;148184.25;5093524;28;20188;-60
2023/03/31 06:17:57;;;;;;;32.93;12.50;;;;;;;8.44;100.00;148165.34;5093338;28;20257;-61
2023/03/31 06:20:24;;;;;;;46.37;13.43;;;;;;;8.38;100.00;148151.44;5093529;28;20184;-61
2023/03/31 06:22:51;;;;;;;44.87;13.37;;;;;;;8.68;100.00;148225.91;5093345;28;20536;-61
2023/03/31 06:25:18;;;;;;;30.67;12.03;;;;;;;8.78;100.00;148249.91;5093152;28;20188;-62
2023/03/31 06:27:45;;;;;;;33.17;9.87;;;;;;;8.58;100.00;148201.91;5092819;28;20196;-61
2023/03/31 06:30:13;;;;;;;22.83;9.67;;;;;;;8.90;100.00;148280.19;5091762;28;20212;-60
2023/03/31 06:32:40;;;;;;;21.20;9.60;;;;;;;9.00;100.00;148305.41;5092828;28;20267;-61
2023/03/31 06:35:09;;;;;;;33.43;10.77;;;;;;;9.04;100.00;148315.50;5092854;28;20199;-61
2023/03/31 06:37:37;;;;;;;38.17;10.70;;;;;;;8.93;100.00;148289.00;5092385;28;20625;-61
2023/03/31 06:40:04;;;;;;;47.07;12.93;;;;;;;9.20;100.00;148355.94;5092696;28;20256;-61
2023/03/31 06:42:31;;;;;;;26.03;10.83;;;;;;;9.23;100.00;148362.22;5092904;28;20306;-60
2023/03/31 06:44:58;;;;;;;60.80;13.53;;;;;;;9.42;100.00;148410.25;5092696;28;20241;-62
2023/03/31 06:47:26;;;;;;;59.60;13.50;;;;;;;9.42;100.00;148411.47;5092981;28;20192;-63
2023/03/31 06:49:53;;;;;;;55.63;15.77;;;;;;;9.42;100.00;148411.47;5092266;28;20560;-61
2023/03/31 06:52:21;;;;;;;43.73;13.00;;;;;;;9.58;100.00;148451.91;5092497;28;20280;-62
2023/03/31 06:54:48;;;;;;;32.63;12.43;;;;;;;9.67;100.00;148473.38;5092307;28;20281;-61
2023/03/31 06:57:15;;;;;;;35.37;11.37;;;;;;;9.66;100.00;148470.84;5092363;28;20184;-62
2023/03/31 06:59:42;;;;;;;35.93;11.73;;;;;;;9.66;100.00;148470.84;5092159;28;20219;-61
2023/03/31 07:02:10;;;;;;;24.53;11.33;;;;;;;9.77;100.00;148497.34;5092194;28;20180;-61
2023/03/31 07:04:37;;;;;;;30.40;10.47;;;;;;;9.92;100.00;148535.28;5092190;28;20226;-62
2023/03/31 07:07:04;;;;;;;27.93;10.93;;;;;;;10.12;100.00;148584.53;5092420;28;20611;-61
2023/03/31 07:09:33;;;;;;;20.43;9.87;;;;;;;10.23;100.00;148613.63;5092180;28;20188;-61
2023/03/31 07:12:00;;;;;;;15.67;8.27;;;;;;;10.28;100.00;148626.28;5092201;28;20316;-61
2023/03/31 07:14:27;;;;;;;10.77;7.60;;;;;;;10.35;100.00;148642.75;5092268;28;20230;-62
2023/03/31 07:16:54;;;;;;;11.53;8.20;;;;;;;10.49;100.00;148679.38;5092214;28;20183;-62
2023/03/31 07:19:21;;;;;;;10.07;9.27;;;;;;;10.49;100.00;148679.38;5092087;28;20275;-62
2023/03/31 07:21:49;;;;;;;9.63;8.83;;;;;;;10.64;96.69;148716.03;5092457;28;20556;-61
2023/03/31 07:24:16;;;;;;;9.33;8.53;;;;;;;10.87;95.70;148772.91;5091803;28;20180;-61
2023/03/31 07:26:44;;;;;;;9.80;9.20;;;;;;;10.86;94.25;148770.41;5092228;28;20184;-61
2023/03/31 07:29:11;;;;;;;11.80;10.67;;;;;;;10.84;91.76;148765.31;5091916;28;20275;-61
2023/03/31 07:31:38;;;;;;;11.77;10.60;;;;;;;10.65;92.85;148717.31;5092384;28;20257;-61
2023/03/31 07:34:06;;;;;;;11.97;10.80;;;;;;;10.64;92.89;148714.78;5092035;28;20609;-61
2023/03/31 07:36:33;;;;;;;12.00;10.97;;;;;;;10.56;94.30;148694.56;5092204;28;20195;-62
2023/03/31 07:39:00;;;;;;;13.77;12.37;;;;;;;10.45;93.83;148668.00;5092316;28;20558;-67
2023/03/31 07:41:27;;;;;;;38.00;13.73;;;;;;;10.49;96.93;148678.09;5092258;28;20196;-61
2023/03/31 07:43:55;;;;;;;17.00;13.63;;;;;;;10.45;95.13;148669.25;5092133;28;20277;-62
2023/03/31 07:46:24;;;;;;;19.83;14.13;;;;;;;10.44;95.71;148665.44;5091563;28;20223;-61
2023/03/31 07:48:53;;;;;;;27.87;14.27;;;;;;;10.39;96.73;148654.13;5091641;28;20245;-62
2023/03/31 07:51:23;;;;;;;15.80;12.37;;;;;;;10.46;96.40;148671.78;5091731;28;20208;-60
2023/03/31 07:53:51;;;;;;;17.47;12.33;;;;;;;10.48;98.54;148676.81;5091708;28;20270;-62
2023/03/31 07:56:18;;;;;;;18.03;13.07;;;;;;;10.56;99.91;148695.81;5091436;28;20187;-61
2023/03/31 07:58:46;;;;;;;25.03;12.93;;;;;;;10.65;100.00;148718.53;5091842;28;20245;-60
2023/03/31 08:01:17;;;;;;;22.23;13.30;;;;;;;10.55;100.00;148693.28;5091748;28;20188;-61
2023/03/31 08:03:47;;;;;;;20.93;13.50;;;;;;;10.64;100.00;148714.78;5091911;28;20552;-61
2023/03/31 08:06:18;;;;;;;31.83;15.80;;;;;;;10.56;100.00;148694.56;5091363;28;20196;-60
2023/03/31 08:08:46;;;;;;;21.63;14.73;;;;;;;10.53;100.00;148689.47;5091815;28;20271;-61
2023/03/31 08:11:15;;;;;;;22.87;15.93;;;;;;;10.43;100.00;148664.22;5091524;28;20231;-61
2023/03/31 08:13:43;;;;;;;18.17;16.00;;;;;;;10.34;100.00;148640.19;5091675;28;20188;-61
2023/03/31 08:16:10;;;;;;;26.73;17.07;;;;;;;10.32;100.00;148635.13;5091910;28;20426;-61
2023/03/31 08:18:38;;;;;;;24.80;17.03;;;;;;;9.99;100.00;148552.94;5092289;28;20223;-61
2023/03/31 08:21:08;;;;;;;22.27;17.80;;;;;;;10.02;100.00;148561.78;5091594;28;20176;-61
2023/03/31 08:23:35;;;;;;;32.37;18.90;;;;;;;9.92;100.00;148535.28;5091192;28;20196;-61
2023/03/31 08:26:11;;;;;;;40.83;19.80;;;;;;;9.87;100.00;148522.63;5091843;28;20180;-61
2023/03/31 08:28:38;;;;;;;35.37;20.20;;;;;;;9.79;100.00;148502.44;5091305;28;20321;-61
2023/03/31 08:31:09;;;;;;;29.03;19.63;;;;;;;9.69;100.00;148477.16;5091341;28;20251;-59
2023/03/31 08:33:37;;;;;;;33.80;19.03;;;;;;;9.78;100.00;148499.88;5091986;28;20704;-61
2023/03/31 08:36:09;;;;;;;23.63;17.27;;;;;;;9.63;100.00;148464.50;5091000;28;20196;-61
2023/03/31 08:38:37;;;;;;;20.83;15.50;;;;;;;9.42;100.00;148411.47;5091361;28;20669;-61
2023/03/31 08:41:08;;;;;;;24.87;14.80;;;;;;;9.39;100.00;148403.91;5091136;28;20644;-62
2023/03/31 08:43:42;;;;;;;25.33;14.03;;;;;;;9.21;100.00;148358.44;5091074;28;20184;-60
2023/03/31 08:46:12;;;;;;;17.47;13.20;;;;;;;8.93;100.00;148289.00;5091490;28;20641;-61
2023/03/31 08:48:44;;;;;;;15.63;13.83;;;;;;;9.05;100.00;148318.03;5090871;28;20279;-61
2023/03/31 08:51:17;;;;;;;19.53;14.37;;;;;;;9.03;100.00;148313.00;5091139;28;20261;-61
2023/03/31 08:53:49;;;;;;;16.90;14.53;;;;;;;8.97;100.00;148297.84;5091374;28;20275;-61
2023/03/31 08:56:19;;;;;;;19.07;15.17;;;;;;;8.94;100.00;148291.53;5091172;28;20192;-62
2023/03/31 08:58:48;;;;;;;20.57;17.23;;;;;;;8.80;100.00;148254.91;5090803;28;20184;-61
2023/03/31 09:01:27;;;;;;;19.70;17.60;;;;;;;8.85;100.00;148267.56;5091290;28;20245;-61
2023/03/31 09:04:12;;;;;;;22.53;17.60;;;;;;;8.81;100.00;148257.44;5090905;28;20198;-61
2023/03/31 09:06:44;;;;;;;29.87;19.07;;;;;;;8.71;100.00;143941.34;5091771;28;20238;-61
2023/03/31 09:09:17;;;;;;;26.93;19.50;;;;;;;8.81;100.00;120751.94;5091423;28;20556;-62
2023/03/31 09:11:50;;;;;;;35.67;22.20;;;;;;;8.85;100.00;97397.66;5090808;28;20227;-62
2023/03/31 09:14:31;;;;;;;28.63;19.03;;;;;;;9.00;100.00;74534.56;5093397;28;20638;-63
2023/03/31 09:17:10;;;;;;;24.70;17.63;;;;;;;8.99;100.00;60549.50;5094765;28;20188;-62
2023/03/31 09:19:42;;;;;;;24.30;16.37;;;;;;;9.23;100.00;59600.28;5094515;28;20192;-62
2023/03/31 09:22:16;;;;;;;24.13;17.03;;;;;;;9.35;100.00;59937.34;5094906;28;20226;-62
2023/03/31 09:24:52;;;;;;;17.73;15.70;;;;;;;9.27;100.00;65127.56;5094540;28;20199;-62
2023/03/31 09:27:21;;;;;;;15.43;13.83;;;;;;;9.38;100.00;65465.13;5095194;28;20211;-62
2023/03/31 09:29:51;;;;;;;17.73;14.83;;;;;;;9.41;100.00;68721.81;5094647;28;20559;-62
2023/03/31 09:32:21;;;;;;;13.93;11.57;;;;;;;9.41;100.00;68071.38;5094081;28;20208;-64
2023/03/31 09:34:53;;;;;;;16.07;11.60;;;;;;;9.42;100.00;72305.84;5094622;28;20181;-61
2023/03/31 09:37:21;;;;;;;14.50;12.10;;;;;;;9.36;100.00;62536.75;5094308;28;20184;-62
2023/03/31 09:39:49;;;;;;;11.37;10.40;;;;;;;9.26;100.00;57332.53;5094578;28;20588;-60
2023/03/31 09:42:18;;;;;;;11.73;10.73;;;;;;;9.17;100.00;47607.75;5094213;28;20181;-62
2023/03/31 09:44:50;;;;;;;11.67;10.57;;;;;;;9.27;100.00;50528.41;5094353;28;20678;-60
2023/03/31 09:47:22;;;;;;;11.83;10.67;;;;;;;9.16;100.00;46960.59;5093055;28;20199;-61
2023/03/31 09:49:49;;;;;;;13.47;10.87;;;;;;;9.23;100.00;41473.22;5094778;28;20623;-61
2023/03/31 09:52:27;;;;;;;12.67;11.17;;;;;;;9.20;100.00;37276.94;5093720;28;20208;-60
2023/03/31 09:54:58;;;;;;;11.93;11.10;;;;;;;9.05;100.00;43720.00;5093967;28;20203;-61
2023/03/31 09:57:28;;;;;;;14.00;12.70;;;;;;;9.05;100.00;44042.97;5093691;28;20238;-61
2023/03/31 10:00:05;;;;;;;13.70;12.37;;;;;;;8.95;100.00;40484.78;5093971;28;20188;-60
2023/03/31 10:02:39;;;;;;;20.10;14.60;;;;;;;8.63;100.00;37884.13;5093635;28;20175;-62
2023/03/31 10:05:18;;;;;;;17.33;15.50;;;;;;;8.86;100.00;34033.84;5093325;28;20212;-61
2023/03/31 10:07:46;;;;;;;26.33;19.67;;;;;;;8.78;100.00;34672.81;5092063;28;20602;-60
2023/03/31 10:10:28;;;;;;;21.23;19.17;;;;;;;8.74;100.00;34348.44;5093639;28;20266;-62
2023/03/31 10:12:56;;;;;;;22.77;20.37;;;;;;;8.67;100.00;30162.78;5093265;28;20204;-60
2023/03/31 10:15:26;;;;;;;31.67;24.80;;;;;;;8.65;100.00;27269.88;5093162;28;20228;-61
2023/03/31 10:17:54;;;;;;;25.87;22.83;;;;;;;8.60;100.00;26624.91;5093063;28;20557;-61
2023/03/31 10:20:32;;;;;;;31.53;22.37;;;;;;;8.57;100.00;23735.13;5093486;28;20200;-61
2023/03/31 10:23:06;;;;;;;28.97;22.83;;;;;;;8.42;100.00;24690.78;5093001;28;20187;-61
2023/03/31 10:25:35;;;;;;;28.90;23.00;;;;;;;8.58;100.00;23735.75;5092039;28;20230;-61
2023/03/31 10:28:03;;;;;;;26.63;21.80;;;;;;;8.66;100.00;24701.94;5092998;28;20184;-60
2023/03/31 10:30:36;;;;;;;24.63;21.57;;;;;;;8.79;100.00;20857.72;5093091;28;20599;-61
2023/03/31 10:33:07;;;;;;;22.63;20.23;;;;;;;8.90;100.00;19259.03;5092867;28;20302;-62
2023/03/31 10:35:39;;;;;;;25.00;21.23;;;;;;;9.12;100.00;17343.81;5092859;28;20275;-62
2023/03/31 10:38:14;;;;;;;29.00;21.63;;;;;;;9.34;100.00;13826.75;5092699;28;20677;-60
2023/03/31 10:40:48;;;;;;;25.20;19.67;;;;;;;9.55;100.00;12871.72;5092742;28;20642;-61
2023/03/31 10:43:18;;;;;;;21.77;19.47;;;;;;;9.75;100.00;12876.84;5092541;28;20274;-62
2023/03/31 10:45:48;;;;;;;21.40;19.27;;;;;;;10.02;100.00;15127.97;5092937;28;20207;-61
2023/03/31 10:48:24;;;;;;;20.80;18.13;;;;;;;10.01;100.00;12883.53;5092901;28;20629;-61
2023/03/31 10:50:51;;;;;;;19.73;17.63;;;;;;;10.34;100.00;13533.56;5092604;28;20266;-61
2023/03/31 10:53:23;;;;;;;20.50;17.33;;;;;;;10.44;100.00;17387.78;5092539;28;20223;-60
2023/03/31 10:56:09;;;;;;;23.37;17.50;;;;;;;10.87;100.00;22225.91;5092871;28;20612;-61
2023/03/31 10:58:55;;;;;;;19.03;14.83;;;;;;;11.05;100.00;25776.50;5092992;28;20188;-63
2023/03/31 11:01:31;;;;;;;16.50;14.93;;;;;;;11.14;100.00;36110.63;5092773;28;20551;-60
2023/03/31 11:04:27;;;;;;;17.00;15.23;;;;;;;11.42;100.00;51366.41;5092668;28;20223;-61
2023/03/31 11:07:04;;;;;;;14.87;13.43;;;;;;;11.29;100.00;94836.91;5092665;28;20276;-61
2023/03/31 11:09:48;;;;;;;14.93;13.63;;;;;;;11.36;100.00;85318.91;5092281;28;20184;-60
2023/03/31 11:12:21;;;;;;;13.87;12.40;;;;;;;11.58;100.00;115682.72;5092203;28;20772;-62
2023/03/31 11:15:08;;;;;;;10.67;9.73;;;;;;;11.63;100.00;148963.88;5092383;28;20607;-62
2023/03/31 11:17:51;;;;;;;9.00;8.50;;;;;;;11.86;100.00;149020.88;5092685;28;20245;-60
2023/03/31 11:20:31;;;;;;;11.00;10.30;;;;;;;12.16;100.00;149095.53;5090988;28;20253;-62
2023/03/31 11:23:07;;;;;;;11.50;10.63;;;;;;;12.43;100.00;149163.91;5092432;28;20607;-61
2023/03/31 11:25:40;;;;;;;10.27;9.63;;;;;;;12.46;100.00;149171.50;5092070;28;20223;-62
2023/03/31 11:28:26;;;;;;;10.53;9.53;;;;;;;12.37;100.00;149148.69;5092009;28;20260;-61
2023/03/31 11:31:02;;;;;;;8.87;8.30;;;;;;;12.15;100.00;149094.25;5091979;28;20208;-62